createdAt,value
2017-10-24T00:00:26.584Z,8.98
2017-10-24T00:01:26.524Z,8.98
2017-10-24T00:02:26.462Z,9.00
2017-10-24T00:03:26.408Z,8.97
2017-10-24T00:04:26.350Z,8.94
2017-10-24T00:05:26.285Z,8.91
2017-10-24T00:06:26.227Z,8.93
2017-10-24T00:07:26.171Z,8.88
2017-10-24T00:08:26.112Z,8.89
2017-10-24T00:09:26.054Z,8.83
2017-10-24T00:10:25.998Z,8.86
2017-10-24T00:11:25.950Z,8.76
2017-10-24T00:12:25.886Z,8.80
2017-10-24T00:13:25.832Z,8.80
2017-10-24T00:14:25.776Z,8.79
2017-10-24T00:15:25.721Z,8.79
2017-10-24T00:16:25.645Z,8.75
2017-10-24T00:17:25.591Z,8.71
2017-10-24T00:18:25.526Z,8.71
2017-10-24T00:19:25.469Z,8.63
2017-10-24T00:20:25.407Z,8.70
2017-10-24T00:21:25.344Z,8.78
2017-10-24T00:22:25.287Z,8.75
2017-10-24T00:23:25.234Z,8.78
2017-10-24T00:24:25.173Z,8.70
2017-10-24T00:25:25.117Z,8.79
2017-10-24T00:26:25.062Z,8.67
2017-10-24T00:27:25.002Z,8.68
2017-10-24T00:28:24.939Z,8.73
2017-10-24T00:29:24.890Z,8.67
2017-10-24T00:30:24.837Z,8.67
2017-10-24T00:31:24.782Z,8.68
2017-10-24T00:32:24.705Z,8.70
2017-10-24T00:33:24.643Z,8.68
2017-10-24T00:34:24.586Z,8.70
2017-10-24T00:35:24.530Z,8.64
2017-10-24T00:36:24.460Z,8.70
2017-10-24T00:37:24.405Z,8.65
2017-10-24T00:38:24.351Z,8.71
2017-10-24T00:39:24.315Z,8.70
2017-10-24T00:40:24.231Z,8.63
2017-10-24T00:41:24.173Z,8.60
2017-10-24T00:42:24.118Z,8.67
2017-10-24T00:43:24.061Z,8.71
2017-10-24T00:44:24.007Z,8.65
2017-10-24T00:45:23.952Z,8.73
2017-10-24T00:46:23.897Z,8.70
2017-10-24T00:47:23.820Z,8.75
2017-10-24T00:48:23.763Z,8.68
2017-10-24T00:49:23.705Z,8.71
2017-10-24T00:50:23.652Z,8.73
2017-10-24T00:51:23.583Z,8.71
2017-10-24T00:52:23.529Z,8.71
2017-10-24T00:53:23.469Z,8.70
2017-10-24T00:54:23.405Z,8.75
2017-10-24T00:55:23.350Z,8.71
2017-10-24T00:56:23.291Z,8.71
2017-10-24T00:57:23.233Z,8.73
2017-10-24T00:58:23.175Z,8.63
2017-10-24T00:59:23.123Z,8.73
2017-10-24T01:00:23.067Z,8.75
2017-10-24T01:01:23.012Z,8.79
2017-10-24T01:02:22.958Z,8.80
2017-10-24T01:03:22.886Z,8.79
2017-10-24T01:04:22.820Z,8.80
2017-10-24T01:05:22.764Z,8.85
2017-10-24T01:06:22.710Z,8.80
2017-10-24T01:07:22.646Z,8.86
2017-10-24T01:08:22.587Z,8.85
2017-10-24T01:09:22.523Z,8.85
2017-10-24T01:10:22.468Z,8.91
2017-10-24T01:11:22.409Z,8.83
2017-10-24T01:12:22.351Z,8.88
2017-10-24T01:13:22.293Z,8.94
2017-10-24T01:14:22.248Z,8.89
2017-10-24T01:15:22.182Z,8.86
2017-10-24T01:16:22.128Z,8.85
2017-10-24T01:17:22.072Z,8.83
2017-10-24T01:18:21.999Z,8.80
2017-10-24T01:19:21.941Z,8.76
2017-10-24T01:20:21.882Z,8.76
2017-10-24T01:21:21.853Z,8.67
2017-10-24T01:22:21.772Z,8.79
2017-10-24T01:23:21.707Z,8.73
2017-10-24T01:24:21.640Z,8.70
2017-10-24T01:25:21.583Z,8.71
2017-10-24T01:26:21.528Z,8.73
2017-10-24T01:27:21.471Z,8.71
2017-10-24T01:28:21.411Z,8.68
2017-10-24T01:29:21.361Z,8.63
2017-10-24T01:30:21.302Z,8.71
2017-10-24T01:31:21.244Z,8.70
2017-10-24T01:32:21.187Z,8.63
2017-10-24T01:33:21.118Z,8.64
2017-10-24T01:34:21.078Z,8.60
2017-10-24T01:35:21.004Z,8.58
2017-10-24T01:36:20.951Z,8.58
2017-10-24T01:37:20.882Z,8.49
2017-10-24T01:38:20.824Z,8.54
2017-10-24T01:39:20.760Z,8.50
2017-10-24T01:40:20.700Z,8.55
2017-10-24T01:41:20.643Z,8.49
2017-10-24T01:42:20.597Z,8.49
2017-10-24T01:43:20.527Z,8.43
2017-10-24T01:44:20.476Z,8.37
2017-10-24T01:45:20.414Z,8.42
2017-10-24T01:46:20.358Z,8.29
2017-10-24T01:47:20.302Z,8.28
2017-10-24T01:48:20.235Z,8.31
2017-10-24T01:49:20.176Z,8.29
2017-10-24T01:50:20.118Z,8.21
2017-10-24T01:51:20.067Z,8.25
2017-10-24T01:52:20.006Z,8.21
2017-10-24T01:53:19.939Z,8.24
2017-10-24T01:54:19.875Z,8.13
2017-10-24T01:55:19.816Z,8.13
2017-10-24T01:56:19.759Z,8.21
2017-10-24T01:57:19.710Z,8.18
2017-10-24T01:58:19.644Z,8.18
2017-10-24T01:59:19.587Z,8.18
2017-10-24T02:00:19.529Z,8.17
2017-10-24T02:01:19.473Z,8.17
2017-10-24T02:02:19.414Z,8.14
2017-10-24T02:03:19.365Z,8.17
2017-10-24T02:04:19.308Z,8.10
2017-10-24T02:05:19.239Z,8.09
2017-10-24T02:06:19.174Z,8.13
2017-10-24T02:07:19.113Z,8.02
2017-10-24T02:08:19.053Z,8.12
2017-10-24T02:09:18.990Z,8.12
2017-10-24T02:10:18.941Z,8.09
2017-10-24T02:11:18.875Z,8.03
2017-10-24T02:12:18.823Z,8.02
2017-10-24T02:13:18.757Z,8.12
2017-10-24T02:14:18.700Z,7.96
2017-10-24T02:15:18.644Z,7.99
2017-10-24T02:16:18.586Z,8.03
2017-10-24T02:17:18.521Z,8.04
2017-10-24T02:18:18.463Z,7.96
2017-10-24T02:19:18.423Z,8.02
2017-10-24T02:20:18.343Z,7.95
2017-10-24T02:21:18.287Z,7.99
2017-10-24T02:22:18.226Z,8.02
2017-10-24T02:23:18.167Z,8.03
2017-10-24T02:24:18.112Z,7.99
2017-10-24T02:25:18.041Z,8.03
2017-10-24T02:26:18.003Z,7.99
2017-10-24T02:27:17.929Z,8.02
2017-10-24T02:28:17.872Z,8.03
2017-10-24T02:29:17.813Z,7.94
2017-10-24T02:30:17.756Z,8.00
2017-10-24T02:31:17.703Z,7.99
2017-10-24T02:32:17.647Z,7.96
2017-10-24T02:33:17.593Z,7.99
2017-10-24T02:34:17.517Z,7.96
2017-10-24T02:35:17.455Z,7.95
2017-10-24T02:36:17.397Z,7.95
2017-10-24T02:37:17.337Z,7.86
2017-10-24T02:38:17.270Z,7.89
2017-10-24T02:39:17.235Z,7.91
2017-10-24T02:40:17.158Z,7.88
2017-10-24T02:41:17.097Z,7.88
2017-10-24T02:42:17.041Z,7.95
2017-10-24T02:43:16.982Z,7.89
2017-10-24T02:44:16.926Z,7.99
2017-10-24T02:45:16.871Z,7.92
2017-10-24T02:46:16.817Z,7.96
2017-10-24T02:47:16.762Z,7.95
2017-10-24T02:48:16.706Z,8.00
2017-10-24T02:49:16.621Z,8.02
2017-10-24T02:50:16.565Z,7.99
2017-10-24T02:51:16.506Z,7.96
2017-10-24T02:52:16.440Z,8.00
2017-10-24T02:53:16.382Z,8.00
2017-10-24T02:54:16.325Z,8.00
2017-10-24T02:55:16.268Z,7.99
2017-10-24T02:56:16.208Z,8.10
2017-10-24T02:57:16.152Z,8.06
2017-10-24T02:58:16.096Z,8.12
2017-10-24T02:59:16.041Z,8.07
2017-10-24T03:00:15.986Z,8.12
2017-10-24T03:01:15.932Z,8.12
2017-10-24T03:02:15.850Z,8.07
2017-10-24T03:03:15.793Z,8.04
2017-10-24T03:04:15.736Z,8.17
2017-10-24T03:05:15.670Z,8.17
2017-10-24T03:06:15.610Z,8.13
2017-10-24T03:07:15.568Z,8.20
2017-10-24T03:08:15.499Z,8.21
2017-10-24T03:09:15.438Z,8.20
2017-10-24T03:10:15.379Z,8.29
2017-10-24T03:11:15.321Z,8.21
2017-10-24T03:12:15.269Z,8.28
2017-10-24T03:13:15.211Z,8.31
2017-10-24T03:14:15.156Z,8.42
2017-10-24T03:15:15.101Z,8.43
2017-10-24T03:16:15.019Z,8.49
2017-10-24T03:17:14.964Z,8.49
2017-10-24T03:18:14.906Z,8.60
2017-10-24T03:19:14.847Z,8.61
2017-10-24T03:20:14.783Z,8.58
2017-10-24T03:21:14.723Z,8.67
2017-10-24T03:22:14.669Z,8.70
2017-10-24T03:23:14.610Z,8.64
2017-10-24T03:24:14.551Z,8.71
2017-10-24T03:25:14.492Z,8.70
2017-10-24T03:26:14.436Z,8.68
2017-10-24T03:27:14.381Z,8.76
2017-10-24T03:28:14.328Z,8.79
2017-10-24T03:29:14.270Z,8.65
2017-10-24T03:30:14.200Z,8.78
2017-10-24T03:31:14.142Z,8.83
2017-10-24T03:32:14.083Z,8.83
2017-10-24T03:33:14.066Z,8.86
2017-10-24T03:34:13.962Z,8.89
2017-10-24T03:35:13.896Z,8.85
2017-10-24T03:36:13.838Z,8.86
2017-10-24T03:37:13.782Z,8.88
2017-10-24T03:38:13.725Z,8.88
2017-10-24T03:39:13.667Z,8.82
2017-10-24T03:40:13.610Z,8.88
2017-10-24T03:41:13.551Z,8.89
2017-10-24T03:42:13.495Z,8.97
2017-10-24T03:43:13.441Z,8.89
2017-10-24T03:44:13.386Z,8.91
2017-10-24T03:45:13.332Z,8.89
2017-10-24T03:46:13.256Z,8.97
2017-10-24T03:47:13.198Z,8.97
2017-10-24T03:48:13.139Z,8.89
2017-10-24T03:49:13.078Z,8.86
2017-10-24T03:50:13.021Z,8.98
2017-10-24T03:51:12.968Z,8.96
2017-10-24T03:52:12.905Z,9.01
2017-10-24T03:53:12.842Z,9.00
2017-10-24T03:54:12.782Z,8.96
2017-10-24T03:55:12.732Z,8.97
2017-10-24T03:56:12.668Z,8.97
2017-10-24T03:57:12.621Z,8.96
2017-10-24T03:58:12.557Z,9.00
2017-10-24T03:59:12.500Z,8.97
2017-10-24T04:00:12.446Z,8.96
2017-10-24T04:01:12.392Z,8.94
2017-10-24T04:02:12.315Z,8.96
2017-10-24T04:03:12.257Z,8.94
2017-10-24T04:04:12.197Z,8.98
2017-10-24T04:05:12.140Z,8.97
2017-10-24T04:06:12.074Z,8.96
2017-10-24T04:07:12.017Z,8.88
2017-10-24T04:08:11.957Z,8.98
2017-10-24T04:09:11.900Z,8.89
2017-10-24T04:10:11.843Z,8.98
2017-10-24T04:11:11.786Z,8.88
2017-10-24T04:12:11.728Z,8.89
2017-10-24T04:13:11.672Z,8.82
2017-10-24T04:14:11.616Z,8.88
2017-10-24T04:15:11.561Z,8.86
2017-10-24T04:16:11.506Z,8.96
2017-10-24T04:17:11.451Z,8.94
2017-10-24T04:18:11.378Z,9.00
2017-10-24T04:19:11.315Z,9.00
2017-10-24T04:20:11.267Z,9.08
2017-10-24T04:21:11.199Z,9.01
2017-10-24T04:22:11.134Z,9.04
2017-10-24T04:23:11.082Z,8.88
2017-10-24T04:24:11.016Z,8.94
2017-10-24T04:25:10.961Z,9.00
2017-10-24T04:26:10.906Z,8.97
2017-10-24T04:27:10.848Z,8.97
2017-10-24T04:28:10.788Z,8.98
2017-10-24T04:29:10.733Z,8.96
2017-10-24T04:30:10.676Z,9.00
2017-10-24T04:31:10.622Z,8.97
2017-10-24T04:32:10.567Z,9.10
2017-10-24T04:33:10.512Z,8.94
2017-10-24T04:34:10.437Z,8.97
2017-10-24T04:35:10.381Z,9.01
2017-10-24T04:36:10.319Z,9.00
2017-10-24T04:37:10.260Z,9.00
2017-10-24T04:38:10.205Z,8.94
2017-10-24T04:39:10.137Z,8.94
2017-10-24T04:40:10.079Z,8.93
2017-10-24T04:41:10.023Z,8.97
2017-10-24T04:42:09.967Z,8.93
2017-10-24T04:43:09.906Z,8.97
2017-10-24T04:44:09.855Z,8.88
2017-10-24T04:45:09.793Z,8.88
2017-10-24T04:46:09.739Z,8.85
2017-10-24T04:47:09.684Z,8.91
2017-10-24T04:48:09.627Z,8.86
2017-10-24T04:49:09.574Z,8.86
2017-10-24T04:50:09.498Z,8.88
2017-10-24T04:51:09.437Z,8.94
2017-10-24T04:52:09.378Z,8.94
2017-10-24T04:53:09.321Z,8.85
2017-10-24T04:54:09.277Z,8.94
2017-10-24T04:55:09.196Z,9.00
2017-10-24T04:56:09.139Z,8.96
2017-10-24T04:57:09.083Z,8.97
2017-10-24T04:58:09.027Z,8.98
2017-10-24T04:59:08.971Z,8.97
2017-10-24T05:00:08.909Z,9.06
2017-10-24T05:01:08.854Z,9.00
2017-10-24T05:02:08.799Z,9.01
2017-10-24T05:03:08.743Z,9.04
2017-10-24T05:04:08.687Z,9.01
2017-10-24T05:05:08.633Z,9.03
2017-10-24T05:06:08.557Z,9.03
2017-10-24T05:07:08.497Z,9.04
2017-10-24T05:08:08.438Z,9.01
2017-10-24T05:09:08.382Z,9.00
2017-10-24T05:10:08.317Z,9.06
2017-10-24T05:11:08.259Z,9.15
2017-10-24T05:12:08.203Z,9.17
2017-10-24T05:13:08.144Z,9.08
2017-10-24T05:14:08.095Z,9.13
2017-10-24T05:15:08.032Z,9.20
2017-10-24T05:16:07.975Z,9.10
2017-10-24T05:17:07.914Z,9.12
2017-10-24T05:18:07.857Z,9.10
2017-10-24T05:19:07.803Z,9.00
2017-10-24T05:20:07.748Z,9.10
2017-10-24T05:21:07.693Z,9.04
2017-10-24T05:22:07.619Z,9.04
2017-10-24T05:23:07.558Z,9.10
2017-10-24T05:24:07.498Z,9.04
2017-10-24T05:25:07.445Z,9.04
2017-10-24T05:26:07.377Z,9.10
2017-10-24T05:27:07.317Z,9.04
2017-10-24T05:28:07.259Z,9.04
2017-10-24T05:29:07.206Z,9.01
2017-10-24T05:30:07.146Z,9.10
2017-10-24T05:31:07.090Z,9.16
2017-10-24T05:32:07.030Z,9.19
2017-10-24T05:33:06.992Z,9.19
2017-10-24T05:34:06.911Z,9.22
2017-10-24T05:35:06.867Z,9.17
2017-10-24T05:36:06.812Z,9.20
2017-10-24T05:37:06.755Z,9.17
2017-10-24T05:38:06.672Z,9.13
2017-10-24T05:39:06.625Z,9.19
2017-10-24T05:40:06.573Z,9.17
2017-10-24T05:41:06.503Z,9.26
2017-10-24T05:42:06.444Z,9.19
2017-10-24T05:43:06.378Z,9.20
2017-10-24T05:44:06.326Z,9.30
2017-10-24T05:45:06.281Z,9.31
2017-10-24T05:46:06.216Z,9.34
2017-10-24T05:47:06.149Z,9.34
2017-10-24T05:48:06.098Z,9.31
2017-10-24T05:49:06.032Z,9.37
2017-10-24T05:50:05.978Z,9.27
2017-10-24T05:51:05.925Z,9.34
2017-10-24T05:52:05.871Z,9.35
2017-10-24T05:53:05.815Z,9.35
2017-10-24T05:54:05.740Z,9.32
2017-10-24T05:55:05.681Z,9.42
2017-10-24T05:56:05.628Z,9.42
2017-10-24T05:57:05.565Z,9.41
2017-10-24T05:58:05.510Z,9.40
2017-10-24T05:59:05.447Z,9.44
2017-10-24T06:00:05.382Z,9.53
2017-10-24T06:01:05.331Z,9.55
2017-10-24T06:02:05.269Z,9.53
2017-10-24T06:03:05.215Z,9.60
2017-10-24T06:04:05.165Z,9.59
2017-10-24T06:05:05.098Z,9.63
2017-10-24T06:06:05.043Z,9.67
2017-10-24T06:07:04.984Z,9.59
2017-10-24T06:08:04.930Z,9.70
2017-10-24T06:09:04.913Z,9.71
2017-10-24T06:10:04.822Z,9.70
2017-10-24T06:11:04.747Z,9.68
2017-10-24T06:12:04.692Z,9.62
2017-10-24T06:13:04.630Z,9.63
2017-10-24T06:14:04.569Z,9.68
2017-10-24T06:15:04.521Z,9.75
2017-10-24T06:16:04.449Z,9.78
2017-10-24T06:17:04.408Z,9.71
2017-10-24T06:18:04.337Z,9.75
2017-10-24T06:19:04.277Z,9.78
2017-10-24T06:20:04.229Z,9.83
2017-10-24T06:21:04.170Z,9.88
2017-10-24T06:22:04.122Z,9.78
2017-10-24T06:23:04.052Z,9.86
2017-10-24T06:24:03.991Z,9.85
2017-10-24T06:25:03.943Z,9.89
2017-10-24T06:26:03.881Z,9.93
2017-10-24T06:27:03.823Z,9.89
2017-10-24T06:28:03.778Z,9.93
2017-10-24T06:29:03.696Z,9.92
2017-10-24T06:30:03.639Z,9.91
2017-10-24T06:31:03.579Z,9.92
2017-10-24T06:32:03.538Z,9.86
2017-10-24T06:33:03.473Z,9.95
2017-10-24T06:34:03.406Z,9.95
2017-10-24T06:35:03.341Z,9.99
2017-10-24T06:36:03.286Z,9.89
2017-10-24T06:37:03.249Z,10.02
2017-10-24T06:38:03.174Z,9.95
2017-10-24T06:39:03.116Z,10.01
2017-10-24T06:40:03.058Z,10.04
2017-10-24T06:41:03.003Z,10.01
2017-10-24T06:42:02.943Z,10.02
2017-10-24T06:43:02.890Z,10.02
2017-10-24T06:44:02.835Z,10.09
2017-10-24T06:45:02.776Z,10.04
2017-10-24T06:46:02.722Z,10.17
2017-10-24T06:47:02.668Z,10.13
2017-10-24T06:48:02.593Z,10.09
2017-10-24T06:49:02.533Z,10.22
2017-10-24T06:50:02.481Z,10.20
2017-10-24T06:51:02.421Z,10.16
2017-10-24T06:52:02.362Z,10.07
2017-10-24T06:53:02.315Z,10.13
2017-10-24T06:54:02.247Z,10.11
2017-10-24T06:55:02.193Z,10.11
2017-10-24T06:56:02.126Z,10.14
2017-10-24T06:57:02.071Z,10.14
2017-10-24T06:58:02.012Z,10.14
2017-10-24T06:59:01.969Z,10.28
2017-10-24T07:00:01.906Z,10.25
2017-10-24T07:01:01.840Z,10.32
2017-10-24T07:02:01.785Z,10.25
2017-10-24T07:03:01.730Z,10.31
2017-10-24T07:04:01.675Z,10.28
2017-10-24T07:05:01.622Z,10.43
2017-10-24T07:06:01.564Z,10.31
2017-10-24T07:07:01.510Z,10.42
2017-10-24T07:08:01.455Z,10.47
2017-10-24T07:09:01.379Z,10.42
2017-10-24T07:10:01.324Z,10.43
2017-10-24T07:11:01.298Z,10.49
2017-10-24T07:12:01.206Z,10.47
2017-10-24T07:13:01.148Z,10.43
2017-10-24T07:14:01.090Z,10.35
2017-10-24T07:15:01.060Z,10.44
2017-10-24T07:16:00.989Z,10.44
2017-10-24T07:17:00.912Z,10.43
2017-10-24T07:18:00.881Z,10.39
2017-10-24T07:19:00.808Z,10.49
2017-10-24T07:20:00.748Z,10.49
2017-10-24T07:21:00.686Z,10.44
2017-10-24T07:22:00.630Z,10.46
2017-10-24T07:23:00.574Z,10.52
2017-10-24T07:24:00.521Z,10.51
2017-10-24T07:25:00.461Z,10.44
2017-10-24T07:26:00.406Z,10.49
2017-10-24T07:27:00.352Z,10.46
2017-10-24T07:28:00.297Z,10.52
2017-10-24T07:29:00.249Z,10.47
2017-10-24T07:30:00.198Z,10.68
2017-10-24T07:31:00.113Z,10.52
2017-10-24T07:32:00.062Z,10.57
2017-10-24T07:32:59.997Z,10.65
2017-10-24T07:33:59.976Z,10.60
2017-10-24T07:34:59.882Z,10.58
2017-10-24T07:35:59.821Z,10.66
2017-10-24T07:36:59.784Z,10.62
2017-10-24T07:37:59.708Z,10.65
2017-10-24T07:38:59.644Z,10.62
2017-10-24T07:39:59.589Z,10.69
2017-10-24T07:40:59.531Z,10.65
2017-10-24T07:41:59.476Z,10.78
2017-10-24T07:42:59.421Z,10.75
2017-10-24T07:43:59.363Z,10.69
2017-10-24T07:44:59.305Z,10.69
2017-10-24T07:45:59.258Z,10.84
2017-10-24T07:46:59.195Z,10.76
2017-10-24T07:47:59.133Z,10.86
2017-10-24T07:48:59.083Z,10.86
2017-10-24T07:49:59.029Z,10.90
2017-10-24T07:50:58.974Z,10.98
2017-10-24T07:51:58.945Z,10.98
2017-10-24T07:52:58.845Z,10.91
2017-10-24T07:53:58.788Z,10.86
2017-10-24T07:54:58.729Z,10.91
2017-10-24T07:55:58.678Z,10.94
2017-10-24T07:56:58.614Z,10.98
2017-10-24T07:57:58.575Z,10.91
2017-10-24T07:58:58.514Z,10.98
2017-10-24T07:59:58.435Z,10.91
2017-10-24T08:00:58.415Z,10.94
2017-10-24T08:01:58.359Z,10.93
2017-10-24T08:02:58.279Z,10.99
2017-10-24T08:03:58.209Z,10.95
2017-10-24T08:04:58.158Z,10.98
2017-10-24T08:05:58.098Z,10.98
2017-10-24T08:06:58.042Z,10.91
2017-10-24T08:07:57.984Z,10.94
2017-10-24T08:08:57.928Z,10.95
2017-10-24T08:09:57.890Z,10.94
2017-10-24T08:10:57.816Z,10.93
2017-10-24T08:11:57.771Z,11.03
2017-10-24T08:12:57.707Z,10.95
2017-10-24T08:13:57.642Z,10.98
2017-10-24T08:14:57.583Z,10.95
2017-10-24T08:15:57.534Z,11.03
2017-10-24T08:16:57.469Z,11.01
2017-10-24T08:17:57.410Z,10.94
2017-10-24T08:18:57.356Z,11.03
2017-10-24T08:19:57.297Z,11.02
2017-10-24T08:20:57.241Z,11.09
2017-10-24T08:21:57.200Z,11.05
2017-10-24T08:22:57.124Z,11.11
2017-10-24T08:23:57.076Z,11.13
2017-10-24T08:24:57.034Z,11.12
2017-10-24T08:25:56.947Z,11.20
2017-10-24T08:26:56.894Z,11.19
2017-10-24T08:27:56.838Z,11.19
2017-10-24T08:28:56.784Z,11.20
2017-10-24T08:29:56.722Z,11.21
2017-10-24T08:30:56.666Z,11.24
2017-10-24T08:31:56.631Z,11.20
2017-10-24T08:32:56.554Z,11.27
2017-10-24T08:33:56.496Z,11.20
2017-10-24T08:34:56.440Z,11.21
2017-10-24T08:35:56.386Z,11.35
2017-10-24T08:36:56.331Z,11.31
2017-10-24T08:37:56.267Z,11.36
2017-10-24T08:38:56.221Z,11.39
2017-10-24T08:39:56.169Z,11.27
2017-10-24T08:40:56.113Z,11.33
2017-10-24T08:41:56.057Z,11.27
2017-10-24T08:42:55.984Z,11.33
2017-10-24T08:43:55.931Z,11.31
2017-10-24T08:44:55.876Z,11.31
2017-10-24T08:45:55.808Z,11.33
2017-10-24T08:46:55.755Z,11.42
2017-10-24T08:47:55.697Z,11.42
2017-10-24T08:48:55.638Z,11.42
2017-10-24T08:49:55.579Z,11.39
2017-10-24T08:50:55.538Z,11.46
2017-10-24T08:51:55.468Z,11.44
2017-10-24T08:52:55.406Z,11.53
2017-10-24T08:53:55.355Z,11.60
2017-10-24T08:54:55.312Z,11.60
2017-10-24T08:55:55.236Z,11.60
2017-10-24T08:56:55.181Z,11.60
2017-10-24T08:57:55.155Z,11.69
2017-10-24T08:58:55.082Z,11.66
2017-10-24T08:59:55.018Z,11.66
2017-10-24T09:00:54.967Z,11.77
2017-10-24T09:01:54.910Z,11.74
2017-10-24T09:02:54.853Z,11.77
2017-10-24T09:03:54.790Z,11.79
2017-10-24T09:04:54.734Z,11.82
2017-10-24T09:05:54.680Z,11.79
2017-10-24T09:06:54.631Z,11.90
2017-10-24T09:07:54.575Z,11.94
2017-10-24T09:08:54.516Z,11.96
2017-10-24T09:09:54.461Z,12.07
2017-10-24T09:10:54.421Z,12.11
2017-10-24T09:11:54.354Z,12.19
2017-10-24T09:12:54.272Z,12.19
2017-10-24T09:13:54.218Z,12.22
2017-10-24T09:14:54.164Z,12.31
2017-10-24T09:15:54.110Z,12.37
2017-10-24T09:16:54.049Z,12.37
2017-10-24T09:17:53.989Z,12.33
2017-10-24T09:18:53.944Z,12.33
2017-10-24T09:19:53.902Z,12.38
2017-10-24T09:20:53.833Z,12.41
2017-10-24T09:21:53.767Z,12.49
2017-10-24T09:22:53.705Z,12.54
2017-10-24T09:23:53.676Z,12.56
2017-10-24T09:24:53.629Z,12.63
2017-10-24T09:25:53.536Z,12.61
2017-10-24T09:26:53.503Z,12.55
2017-10-24T09:27:53.423Z,12.67
2017-10-24T09:28:53.386Z,12.61
2017-10-24T09:29:53.318Z,12.59
2017-10-24T09:30:53.269Z,12.67
2017-10-24T09:31:53.206Z,12.80
2017-10-24T09:32:53.147Z,12.80
2017-10-24T09:33:53.093Z,12.81
2017-10-24T09:34:53.036Z,12.80
2017-10-24T09:35:52.978Z,12.91
2017-10-24T09:36:52.923Z,12.88
2017-10-24T09:37:52.869Z,12.96
2017-10-24T09:38:52.844Z,12.92
2017-10-24T09:39:52.758Z,12.96
2017-10-24T09:40:52.703Z,12.98
2017-10-24T09:41:52.648Z,13.03
2017-10-24T09:42:52.616Z,13.19
2017-10-24T09:43:52.539Z,13.19
2017-10-24T09:44:52.484Z,13.31
2017-10-24T09:45:52.422Z,13.41
2017-10-24T09:46:52.379Z,13.39
2017-10-24T09:47:52.320Z,13.53
2017-10-24T09:48:52.269Z,13.54
2017-10-24T09:49:52.213Z,13.57
2017-10-24T09:50:52.144Z,13.69
2017-10-24T09:51:52.121Z,13.79
2017-10-24T09:52:52.049Z,13.69
2017-10-24T09:53:51.992Z,13.83
2017-10-24T09:54:51.936Z,13.83
2017-10-24T09:55:51.865Z,13.91
2017-10-24T09:56:51.827Z,13.93
2017-10-24T09:57:51.772Z,14.08
2017-10-24T09:58:51.707Z,14.01
2017-10-24T09:59:51.665Z,14.02
2017-10-24T10:00:51.590Z,14.05
2017-10-24T10:01:51.557Z,14.11
2017-10-24T10:02:51.500Z,14.05
2017-10-24T10:03:51.446Z,14.20
2017-10-24T10:04:51.371Z,14.09
2017-10-24T10:05:51.322Z,14.09
2017-10-24T10:06:51.265Z,14.17
2017-10-24T10:07:51.205Z,14.19
2017-10-24T10:08:51.152Z,14.08
2017-10-24T10:09:51.098Z,14.02
2017-10-24T10:10:51.045Z,14.05
2017-10-24T10:11:50.987Z,14.08
2017-10-24T10:12:50.934Z,14.04
2017-10-24T10:13:50.876Z,14.06
2017-10-24T10:14:50.819Z,14.01
2017-10-24T10:15:50.766Z,14.08
2017-10-24T10:16:50.711Z,14.01
2017-10-24T10:17:50.661Z,13.88
2017-10-24T10:18:50.608Z,13.83
2017-10-24T10:19:50.547Z,13.86
2017-10-24T10:20:50.492Z,13.87
2017-10-24T10:21:50.444Z,13.86
2017-10-24T10:22:50.382Z,13.54
2017-10-24T10:23:50.327Z,13.53
2017-10-24T10:24:50.273Z,13.66
2017-10-24T10:25:50.216Z,13.50
2017-10-24T10:26:50.161Z,13.59
2017-10-24T10:27:50.106Z,13.55
2017-10-24T10:28:50.082Z,13.54
2017-10-24T10:29:49.996Z,13.53
2017-10-24T10:30:49.936Z,13.46
2017-10-24T10:31:49.888Z,13.48
2017-10-24T10:32:49.831Z,13.51
2017-10-24T10:33:49.772Z,13.48
2017-10-24T10:34:49.716Z,13.29
2017-10-24T10:35:49.664Z,13.46
2017-10-24T10:36:49.607Z,13.38
2017-10-24T10:37:49.545Z,13.35
2017-10-24T10:38:49.486Z,13.24
2017-10-24T10:39:49.430Z,13.36
2017-10-24T10:40:49.377Z,13.47
2017-10-24T10:41:49.320Z,13.36
2017-10-24T10:42:49.264Z,13.48
2017-10-24T10:43:49.222Z,13.31
2017-10-24T10:44:49.153Z,13.41
2017-10-24T10:45:49.099Z,13.39
2017-10-24T10:46:49.046Z,13.41
2017-10-24T10:47:48.986Z,13.51
2017-10-24T10:48:48.933Z,13.65
2017-10-24T10:49:48.912Z,13.57
2017-10-24T10:50:48.827Z,13.57
2017-10-24T10:51:48.764Z,13.54
2017-10-24T10:52:48.713Z,13.57
2017-10-24T10:53:48.670Z,13.68
2017-10-24T10:54:48.658Z,13.76
2017-10-24T10:55:48.545Z,13.80
2017-10-24T10:56:48.488Z,13.88
2017-10-24T10:57:48.435Z,13.88
2017-10-24T10:58:48.382Z,13.83
2017-10-24T10:59:48.327Z,14.01
2017-10-24T11:00:48.274Z,13.99
2017-10-24T11:01:48.250Z,14.02
2017-10-24T11:02:48.169Z,14.16
2017-10-24T11:03:48.104Z,14.19
2017-10-24T11:04:48.051Z,14.27
2017-10-24T11:05:47.996Z,14.29
2017-10-24T11:06:47.942Z,14.39
2017-10-24T11:07:47.917Z,14.46
2017-10-24T11:08:47.851Z,14.39
2017-10-24T11:09:47.774Z,14.38
2017-10-24T11:10:47.722Z,14.44
2017-10-24T11:11:47.664Z,14.44
2017-10-24T11:12:47.622Z,14.38
2017-10-24T11:13:47.556Z,14.31
2017-10-24T11:14:47.489Z,14.19
2017-10-24T11:15:47.446Z,14.27
2017-10-24T11:16:47.391Z,14.21
2017-10-24T11:17:47.338Z,14.27
2017-10-24T11:18:47.282Z,14.19
2017-10-24T11:19:47.229Z,14.06
2017-10-24T11:20:47.173Z,14.05
2017-10-24T11:21:47.118Z,14.05
2017-10-24T11:22:47.064Z,14.05
2017-10-24T11:23:47.012Z,14.01
2017-10-24T11:24:46.937Z,13.98
2017-10-24T11:25:46.884Z,14.01
2017-10-24T11:26:46.846Z,14.09
2017-10-24T11:27:46.790Z,14.02
2017-10-24T11:28:46.736Z,14.02
2017-10-24T11:29:46.682Z,13.98
2017-10-24T11:30:46.630Z,13.93
2017-10-24T11:31:46.561Z,13.84
2017-10-24T11:32:46.500Z,13.87
2017-10-24T11:33:46.442Z,13.88
2017-10-24T11:34:46.408Z,13.80
2017-10-24T11:35:46.330Z,13.81
2017-10-24T11:36:46.287Z,13.84
2017-10-24T11:37:46.253Z,13.80
2017-10-24T11:38:46.164Z,13.83
2017-10-24T11:39:46.109Z,13.75
2017-10-24T11:40:46.082Z,13.66
2017-10-24T11:41:45.995Z,13.83
2017-10-24T11:42:45.944Z,13.87
2017-10-24T11:43:45.885Z,14.06
2017-10-24T11:44:45.828Z,14.11
2017-10-24T11:45:45.775Z,14.21
2017-10-24T11:46:45.728Z,14.23
2017-10-24T11:47:45.661Z,14.38
2017-10-24T11:48:45.605Z,14.41
2017-10-24T11:49:45.549Z,14.41
2017-10-24T11:50:45.514Z,14.56
2017-10-24T11:51:45.436Z,14.45
2017-10-24T11:52:45.377Z,14.46
2017-10-24T11:53:45.354Z,14.49
2017-10-24T11:54:45.268Z,14.56
2017-10-24T11:55:45.240Z,14.56
2017-10-24T11:56:45.156Z,14.60
2017-10-24T11:57:45.102Z,14.63
2017-10-24T11:58:45.046Z,14.72
2017-10-24T11:59:45.000Z,14.78
2017-10-24T12:00:44.941Z,14.83
2017-10-24T12:01:44.908Z,14.86
2017-10-24T12:02:44.827Z,14.80
2017-10-24T12:03:44.775Z,14.83
2017-10-24T12:04:44.728Z,14.87
2017-10-24T12:05:44.666Z,14.95
2017-10-24T12:06:44.607Z,14.97
2017-10-24T12:07:44.553Z,15.04
2017-10-24T12:08:44.525Z,15.01
2017-10-24T12:09:44.444Z,15.12
2017-10-24T12:10:44.395Z,15.15
2017-10-24T12:11:44.335Z,15.28
2017-10-24T12:12:44.280Z,15.23
2017-10-24T12:13:44.229Z,15.23
2017-10-24T12:14:44.172Z,15.19
2017-10-24T12:15:44.125Z,15.20
2017-10-24T12:16:44.069Z,15.18
2017-10-24T12:17:44.061Z,15.05
2017-10-24T12:18:43.951Z,15.07
2017-10-24T12:19:43.899Z,14.98
2017-10-24T12:20:43.846Z,15.03
2017-10-24T12:21:43.825Z,15.04
2017-10-24T12:22:43.732Z,15.07
2017-10-24T12:23:43.679Z,15.13
2017-10-24T12:24:43.625Z,15.22
2017-10-24T12:25:43.572Z,15.20
2017-10-24T12:26:43.516Z,15.33
2017-10-24T12:27:43.462Z,15.28
2017-10-24T12:28:43.406Z,15.23
2017-10-24T12:29:43.349Z,15.27
2017-10-24T12:30:43.296Z,15.31
2017-10-24T12:31:43.240Z,15.48
2017-10-24T12:32:43.193Z,15.40
2017-10-24T12:33:43.149Z,15.46
2017-10-24T12:34:43.077Z,15.41
2017-10-24T12:35:43.025Z,15.35
2017-10-24T12:36:42.978Z,15.31
2017-10-24T12:37:42.927Z,15.22
2017-10-24T12:38:42.859Z,15.23
2017-10-24T12:39:42.818Z,15.16
2017-10-24T12:40:42.759Z,15.09
2017-10-24T12:41:42.696Z,15.04
2017-10-24T12:42:42.641Z,15.03
2017-10-24T12:43:42.586Z,15.16
2017-10-24T12:44:42.532Z,15.13
2017-10-24T12:45:42.476Z,15.23
2017-10-24T12:46:42.445Z,15.16
2017-10-24T12:47:42.367Z,15.15
2017-10-24T12:48:42.332Z,15.15
2017-10-24T12:49:42.258Z,15.18
2017-10-24T12:50:42.208Z,15.19
2017-10-24T12:51:42.157Z,15.18
2017-10-24T12:52:42.094Z,15.15
2017-10-24T12:53:42.040Z,15.12
2017-10-24T12:54:41.993Z,15.07
2017-10-24T12:55:41.933Z,15.04
2017-10-24T12:56:41.876Z,15.03
2017-10-24T12:57:41.827Z,15.11
2017-10-24T12:58:41.766Z,15.01
2017-10-24T12:59:41.719Z,15.09
2017-10-24T13:00:41.680Z,15.05
2017-10-24T13:01:41.605Z,15.13
2017-10-24T13:02:41.555Z,15.25
2017-10-24T13:03:41.492Z,15.07
2017-10-24T13:04:41.450Z,15.11